createdAt,value
2023-03-26T00:00:18.945Z,6.67
2023-03-26T00:04:33.823Z,4.60
2023-03-26T00:08:46.073Z,6.87
2023-03-26T00:12:57.809Z,6.13
2023-03-26T00:17:09.461Z,4.20
2023-03-26T00:21:32.041Z,3.03
2023-03-26T00:25:45.711Z,12.80
2023-03-26T00:29:59.737Z,7.67
2023-03-26T00:34:12.144Z,14.73
2023-03-26T00:38:24.805Z,9.93
2023-03-26T00:42:39.580Z,10.67
2023-03-26T00:46:51.431Z,8.83
2023-03-26T00:51:03.465Z,10.63
2023-03-26T00:55:16.173Z,13.13
2023-03-26T00:59:30.554Z,9.30
2023-03-26T01:03:56.779Z,17.97
2023-03-26T01:08:24.201Z,8.20
2023-03-26T01:12:36.097Z,7.40
2023-03-26T01:16:52.611Z,16.27
2023-03-26T01:21:09.458Z,18.20
2023-03-26T01:25:23.533Z,12.13
2023-03-26T01:29:54.375Z,11.53
2023-03-26T01:34:22.272Z,18.93
2023-03-26T01:39:00.587Z,13.23
2023-03-26T01:43:34.520Z,17.10
2023-03-26T01:47:47.230Z,16.33
2023-03-26T01:51:59.172Z,14.40
2023-03-26T01:56:13.470Z,15.45
2023-03-26T02:00:28.448Z,12.10
2023-03-26T02:05:11.923Z,12.43
2023-03-26T02:09:28.574Z,19.13
2023-03-26T02:13:42.951Z,12.03
2023-03-26T02:17:54.878Z,16.27
2023-03-26T02:22:11.287Z,15.77
2023-03-26T02:26:24.930Z,14.93
2023-03-26T02:30:50.543Z,19.63
2023-03-26T02:35:02.983Z,17.40
2023-03-26T02:39:14.888Z,9.90
2023-03-26T02:43:33.612Z,9.67
2023-03-26T02:47:46.102Z,16.20
2023-03-26T02:52:30.982Z,12.20
2023-03-26T02:56:44.526Z,15.63
2023-03-26T03:01:18.418Z,19.33
2023-03-26T03:05:38.180Z,14.67
2023-03-26T03:10:14.133Z,20.03
2023-03-26T03:14:44.577Z,14.90
2023-03-26T03:18:59.225Z,22.70
2023-03-26T03:23:20.652Z,18.27
2023-03-26T03:27:33.589Z,17.47
2023-03-26T03:31:53.258Z,20.70
2023-03-26T03:36:23.423Z,17.57
2023-03-26T03:40:44.846Z,20.43
2023-03-26T03:44:56.602Z,15.63
2023-03-26T03:49:28.469Z,22.00
2023-03-26T03:53:42.348Z,16.20
2023-03-26T03:57:56.814Z,19.63
2023-03-26T04:02:09.824Z,15.30
2023-03-26T04:06:32.032Z,14.77
2023-03-26T04:10:44.869Z,9.90
2023-03-26T04:14:57.338Z,14.50
2023-03-26T04:19:08.997Z,17.97
2023-03-26T04:23:22.327Z,11.07
2023-03-26T04:27:41.798Z,13.10
2023-03-26T04:32:30.259Z,16.70
2023-03-26T04:36:42.722Z,7.75
2023-03-26T04:41:00.868Z,8.57
2023-03-26T04:45:27.557Z,17.83
2023-03-26T04:49:41.576Z,11.37
2023-03-26T04:53:58.328Z,14.43
2023-03-26T04:58:20.934Z,12.17
2023-03-26T05:02:43.487Z,15.43
2023-03-26T05:06:58.038Z,11.13
2023-03-26T05:11:18.272Z,17.27
2023-03-26T05:15:30.086Z,14.77
2023-03-26T05:19:41.815Z,10.87
2023-03-26T05:23:53.836Z,13.07
2023-03-26T05:28:07.566Z,29.17
2023-03-26T05:32:36.635Z,24.60
2023-03-26T05:36:48.738Z,15.73
2023-03-26T05:41:23.131Z,18.10
2023-03-26T05:45:35.751Z,11.37
2023-03-26T05:50:00.830Z,10.33
2023-03-26T05:54:12.505Z,12.07
2023-03-26T05:58:43.640Z,11.83
2023-03-26T06:03:28.915Z,7.43
2023-03-26T06:08:02.847Z,13.67
2023-03-26T06:12:21.977Z,9.93
2023-03-26T06:16:34.332Z,17.27
2023-03-26T06:21:18.551Z,11.90
2023-03-26T06:25:35.830Z,18.60
2023-03-26T06:29:59.277Z,15.57
2023-03-26T06:34:22.375Z,15.17
2023-03-26T06:38:34.131Z,11.13
2023-03-26T06:43:08.989Z,13.67
2023-03-26T06:47:25.427Z,18.07
2023-03-26T06:52:09.513Z,11.30
2023-03-26T06:56:24.369Z,10.10
2023-03-26T07:01:08.017Z,12.53
2023-03-26T07:05:40.569Z,14.50
2023-03-26T07:10:10.819Z,10.50
2023-03-26T07:14:34.219Z,17.10
2023-03-26T07:19:12.175Z,14.53
2023-03-26T07:23:26.797Z,14.30
2023-03-26T07:28:16.508Z,12.50
2023-03-26T07:33:07.242Z,17.00
2023-03-26T07:38:02.471Z,14.80
2023-03-26T07:42:49.406Z,14.97
2023-03-26T07:47:28.977Z,8.73
2023-03-26T07:51:59.438Z,9.90
2023-03-26T07:56:52.246Z,11.60
2023-03-26T08:01:32.047Z,12.90
2023-03-26T08:05:53.278Z,18.57
2023-03-26T08:10:23.609Z,13.37
2023-03-26T08:14:59.321Z,10.53
2023-03-26T08:19:33.158Z,12.33
2023-03-26T08:24:09.595Z,11.60
2023-03-26T08:28:53.012Z,17.20
2023-03-26T08:33:35.981Z,10.60
2023-03-26T08:37:49.465Z,12.60
2023-03-26T08:42:24.252Z,10.20
2023-03-26T08:47:03.247Z,15.77
2023-03-26T08:51:30.033Z,14.70
2023-03-26T08:55:58.045Z,12.70
2023-03-26T09:00:26.467Z,14.40
2023-03-26T09:04:53.749Z,13.97
2023-03-26T09:09:39.683Z,12.50
2023-03-26T09:14:10.223Z,12.07
2023-03-26T15:19:32.191Z,3.75
2023-03-26T15:24:05.131Z,6.13
2023-03-26T15:28:50.460Z,3.65
2023-03-26T15:33:36.197Z,7.70
2023-03-26T15:38:17.943Z,4.55
2023-03-26T15:42:46.506Z,9.85
2023-03-26T15:47:22.833Z,8.00
2023-03-26T15:51:53.214Z,7.95
2023-03-26T15:56:26.892Z,6.93
2023-03-26T16:01:09.188Z,8.70
2023-03-26T16:05:30.165Z,3.47
2023-03-26T16:09:49.935Z,7.43
2023-03-26T16:14:18.560Z,5.40
2023-03-26T16:18:41.029Z,8.38
2023-03-26T16:23:03.556Z,10.75
2023-03-26T16:27:15.677Z,3.07
2023-03-26T16:31:38.363Z,3.83
2023-03-26T16:36:06.391Z,3.60
2023-03-26T16:40:18.205Z,5.67
2023-03-26T16:44:38.883Z,4.07
2023-03-26T16:48:59.242Z,7.20
2023-03-26T16:53:29.949Z,5.23
2023-03-26T16:57:52.666Z,6.50
2023-03-26T17:02:19.925Z,7.90
2023-03-26T17:06:48.276Z,3.60
2023-03-26T17:11:47.615Z,7.72
2023-03-26T17:16:12.710Z,6.95
2023-03-26T17:20:33.538Z,6.07
2023-03-26T17:24:51.975Z,7.17
2023-03-26T17:29:22.422Z,7.40
2023-03-26T17:33:36.996Z,2.93
2023-03-26T17:37:49.652Z,4.37
2023-03-26T17:42:18.791Z,4.00
2023-03-26T17:46:45.444Z,6.03
2023-03-26T17:51:03.075Z,4.47
2023-03-26T17:55:25.928Z,4.57
2023-03-26T17:59:39.306Z,6.60
2023-03-26T18:03:55.811Z,7.73
2023-03-26T18:09:06.367Z,8.93
2023-03-26T18:13:37.429Z,9.73
2023-03-26T18:17:49.329Z,8.80
2023-03-26T18:22:05.445Z,11.87
2023-03-26T18:26:22.614Z,9.03
2023-03-26T18:30:46.988Z,6.63
2023-03-26T18:35:18.919Z,4.60
2023-03-26T18:39:30.579Z,4.40
2023-03-26T18:43:44.463Z,11.20
2023-03-26T18:48:01.589Z,5.43
2023-03-26T18:52:18.279Z,3.63
2023-03-26T18:56:37.204Z,3.73
2023-03-26T19:00:52.893Z,13.13
2023-03-26T19:05:05.197Z,4.03
2023-03-26T19:09:31.207Z,5.70
2023-03-26T19:13:46.376Z,13.40
2023-03-26T19:18:06.997Z,4.77
2023-03-26T19:22:21.200Z,7.87
2023-03-26T19:26:33.417Z,6.80
2023-03-26T19:30:45.413Z,7.20
2023-03-26T19:34:59.680Z,4.47
2023-03-26T19:39:13.008Z,5.47
2023-03-26T19:43:25.865Z,7.00
2023-03-26T19:52:10.949Z,3.57
2023-03-26T19:56:23.352Z,3.67
2023-03-26T20:00:35.102Z,4.80
2023-03-26T20:04:47.022Z,4.40
2023-03-26T20:08:58.844Z,7.00
2023-03-26T20:13:16.162Z,6.67
2023-03-26T20:17:30.951Z,4.10
2023-03-26T20:21:43.417Z,2.80
2023-03-26T20:25:55.437Z,6.00
2023-03-26T20:30:09.231Z,5.20
2023-03-26T20:34:23.711Z,4.13
2023-03-26T20:38:39.593Z,4.50
2023-03-26T20:42:51.701Z,4.27
2023-03-26T20:47:03.838Z,5.67
2023-03-26T20:51:16.100Z,7.60
2023-03-26T20:55:28.369Z,6.27
2023-03-26T20:59:40.086Z,5.27
2023-03-26T21:03:51.728Z,4.50
2023-03-26T21:08:03.696Z,6.10
2023-03-26T21:12:28.149Z,5.03
2023-03-26T21:16:40.175Z,4.70
2023-03-26T21:21:18.159Z,5.17
2023-03-26T21:25:52.834Z,2.17
2023-03-26T21:30:11.056Z,7.83
2023-03-26T21:34:23.269Z,8.27
2023-03-26T21:38:35.610Z,8.60
2023-03-26T21:42:50.831Z,4.20
2023-03-26T21:47:02.921Z,5.23
2023-03-26T21:51:15.153Z,7.50
2023-03-26T21:55:27.489Z,2.63
2023-03-26T21:59:59.042Z,4.60
2023-03-26T22:04:26.056Z,3.13
2023-03-26T22:08:42.175Z,2.23
2023-03-26T22:12:53.931Z,6.67
2023-03-26T22:17:06.013Z,6.70
2023-03-26T22:21:18.031Z,6.93
2023-03-26T22:25:30.307Z,8.17
2023-03-26T22:29:42.221Z,4.93
2023-03-26T22:33:55.124Z,3.33
2023-03-26T22:38:07.073Z,3.57
2023-03-26T22:42:19.524Z,3.47
2023-03-26T22:46:31.543Z,5.83
2023-03-26T22:50:43.723Z,4.77
2023-03-26T22:54:55.757Z,4.40
2023-03-26T22:59:07.515Z,3.60
2023-03-26T23:03:20.541Z,5.77
2023-03-26T23:07:49.053Z,3.63
2023-03-26T23:12:01.227Z,3.27
2023-03-26T23:16:14.604Z,3.13
2023-03-26T23:20:27.816Z,13.03
2023-03-26T23:24:39.889Z,4.17
2023-03-26T23:28:51.750Z,7.10
2023-03-26T23:33:03.980Z,4.57
2023-03-26T23:37:22.926Z,3.73
2023-03-26T23:41:35.229Z,4.03
2023-03-26T23:45:48.323Z,4.47
2023-03-26T23:50:04.930Z,3.70
2023-03-26T23:54:16.823Z,3.73
2023-03-26T23:58:30.630Z,5.73
